Time;durP1;ratioP1;P1;durP2;ratioP2;P2;SDS_P1;SDS_P2;PMS_P1;PMS_P2;Temp;Humidity;BMP_temperature;BMP_pressure;BME280_temperature;BME280_humidity;BME280_pressure;Samples;Min_cycle;Max_cycle;Signal;HPM_P1;HPM_P2
2023/10/02 00:01:17;;;;;;;;;;;20.60;69.00;;;;;;5053846;28;1968;-67
2023/10/02 00:03:43;;;;;;;;;;;20.70;69.00;;;;;;5050663;28;1456;-65
2023/10/02 00:06:11;;;;;;;;;;;20.60;69.00;;;;;;5037946;28;1405;-66
2023/10/02 00:08:42;;;;;;;;;;;20.70;69.00;;;;;;5036582;28;1366;-66
2023/10/02 00:16:58;;;;;;;;;;;20.60;69.00;;;;;;5051459;28;1488;-66
2023/10/02 00:19:36;;;;;;;;;;;20.70;69.10;;;;;;5054879;28;1431;-66
2023/10/02 00:22:05;;;;;;;;;;;20.70;69.10;;;;;;5054732;28;2059;-67
2023/10/02 00:24:35;;;;;;;;;;;20.70;69.10;;;;;;5055462;28;1217;-66
2023/10/02 00:27:01;;;;;;;;;;;20.70;69.10;;;;;;5052420;28;1085;-66
2023/10/02 00:29:27;;;;;;;;;;;20.60;69.00;;;;;;5037325;28;1293;-66
2023/10/02 00:31:52;;;;;;;;;;;20.70;69.10;;;;;;5056659;28;1508;-66
2023/10/02 00:34:30;;;;;;;;;;;20.70;69.10;;;;;;5040812;28;1310;-66
2023/10/02 00:36:56;;;;;;;;;;;20.70;69.10;;;;;;5040792;28;1335;-66
2023/10/02 00:39:25;;;;;;;;;;;20.70;69.00;;;;;;5058641;28;1522;-67
2023/10/02 00:47:42;;;;;;;;;;;20.60;69.00;;;;;;5058544;28;1513;-67
2023/10/02 00:50:10;;;;;;;;;;;20.70;69.10;;;;;;5059441;28;1367;-67
2023/10/02 00:52:37;;;;;;;;;;;20.60;69.10;;;;;;5057780;28;1368;-67
2023/10/02 00:55:05;;;;;;;;;;;20.60;69.00;;;;;;5042569;28;1324;-67
2023/10/02 00:57:35;;;;;;;;;;;20.60;69.00;;;;;;5038220;28;1495;-66
2023/10/02 01:00:17;;;;;;;;;;;20.70;69.20;;;;;;5039580;28;1477;-65
2023/10/02 01:03:01;;;;;;;;;;;20.60;69.10;;;;;;5058810;28;1894;-66
2023/10/02 01:05:42;;;;;;;;;;;20.60;69.10;;;;;;5056564;28;1282;-65
2023/10/02 01:11:04;;;;;;;;;;;20.70;69.20;;;;;;5043312;28;1455;-66
2023/10/02 01:13:32;;;;;;;;;;;20.70;69.20;;;;;;5041547;28;1241;-66
2023/10/02 01:15:59;;;;;;;;;;;20.60;69.10;;;;;;5057848;28;1284;-66
2023/10/02 01:18:27;;;;;;;;;;;20.70;69.20;;;;;;5037525;28;1440;-66
2023/10/02 01:20:54;;;;;;;;;;;20.70;69.20;;;;;;5038923;28;1926;-66
2023/10/02 01:23:25;;;;;;;;;;;20.60;69.20;;;;;;5036294;28;1363;-66
2023/10/02 01:25:50;;;;;;;;;;;20.70;69.20;;;;;;5056715;28;1318;-66
2023/10/02 01:28:20;;;;;;;;;;;20.70;69.20;;;;;;5025858;28;1293;-66
2023/10/02 01:30:47;;;;;;;;;;;20.60;69.20;;;;;;5037406;28;1311;-66
2023/10/02 01:33:22;;;;;;;;;;;20.60;69.20;;;;;;5054314;28;1388;-66
2023/10/02 01:35:54;;;;;;;;;;;20.60;69.20;;;;;;5040915;28;1595;-66
2023/10/02 01:38:32;;;;;;;;;;;20.70;69.40;;;;;;5059273;28;1588;-66
2023/10/02 01:41:08;;;;;;;;;;;20.70;69.40;;;;;;5044234;28;1906;-66
2023/10/02 01:43:33;;;;;;;;;;;20.70;69.40;;;;;;5058373;28;1347;-66
2023/10/02 01:46:00;;;;;;;;;;;20.70;69.40;;;;;;5053602;28;1346;-66
2023/10/02 01:48:40;;;;;;;;;;;20.60;69.30;;;;;;5058564;28;1363;-66
2023/10/02 01:51:15;;;;;;;;;;;20.60;69.30;;;;;;5039338;28;1354;-66
2023/10/02 01:53:45;;;;;;;;;;;20.70;69.40;;;;;;5055109;28;1473;-66
2023/10/02 01:56:11;;;;;;;;;;;20.60;69.40;;;;;;5039867;28;1436;-65
2023/10/02 01:58:39;;;;;;;;;;;20.60;69.40;;;;;;5034734;28;1372;-65
2023/10/02 02:01:06;;;;;;;;;;;20.60;69.40;;;;;;5039732;28;1906;-66
2023/10/02 02:03:33;;;;;;;;;;;20.60;69.40;;;;;;5055302;28;1216;-66
2023/10/02 02:06:08;;;;;;;;;;;20.60;69.40;;;;;;5056533;28;1290;-66
2023/10/02 02:08:37;;;;;;;;;;;20.60;69.40;;;;;;5040218;28;1648;-65
2023/10/02 02:11:15;;;;;;;;;;;20.70;69.40;;;;;;5057570;28;1918;-66
2023/10/02 02:13:47;;;;;;;;;;;20.60;69.40;;;;;;5082459;22;1987;-65
2023/10/02 02:16:22;;;;;;;;;;;20.60;69.40;;;;;;5063502;28;1179;-65
2023/10/02 02:18:53;;;;;;;;;;;20.60;69.40;;;;;;5060777;28;1463;-65
2023/10/02 02:21:19;;;;;;;;;;;20.60;69.40;;;;;;5062841;28;1921;-65
2023/10/02 02:23:46;;;;;;;;;;;20.70;69.50;;;;;;5063377;28;1300;-65
2023/10/02 02:26:20;;;;;;;;;;;20.60;69.40;;;;;;5061806;28;1220;-65
2023/10/02 02:28:46;;;;;;;;;;;20.70;69.50;;;;;;5044982;28;1577;-65
2023/10/02 02:31:33;;;;;;;;;;;20.60;69.40;;;;;;5061741;28;1449;-66
2023/10/02 02:33:59;;;;;;;;;;;20.60;69.40;;;;;;5046679;28;1602;-66
2023/10/02 02:36:28;;;;;;;;;;;20.70;69.50;;;;;;5063183;28;1323;-64
2023/10/02 02:39:15;;;;;;;;;;;20.70;69.50;;;;;;5063603;28;1466;-65
2023/10/02 02:41:41;;;;;;;;;;;20.60;69.50;;;;;;5061080;28;1973;-64
2023/10/02 02:44:09;;;;;;;;;;;20.70;69.50;;;;;;5058307;28;1251;-65
2023/10/02 02:46:53;;;;;;;;;;;20.70;69.50;;;;;;5058945;28;1429;-65
2023/10/02 02:49:19;;;;;;;;;;;20.60;69.50;;;;;;5061224;28;1254;-65
2023/10/02 02:51:48;;;;;;;;;;;20.70;69.50;;;;;;5063610;28;1422;-65
2023/10/02 02:54:14;;;;;;;;;;;20.60;69.50;;;;;;5063667;28;1477;-65
2023/10/02 02:56:40;;;;;;;;;;;20.60;69.50;;;;;;5061058;28;1326;-65
2023/10/02 02:59:08;;;;;;;;;;;20.70;69.50;;;;;;5059271;28;1453;-65
2023/10/02 03:01:33;;;;;;;;;;;20.60;69.50;;;;;;5060132;28;1898;-64
2023/10/02 03:04:11;;;;;;;;;;;20.70;69.60;;;;;;5062337;28;1572;-65
2023/10/02 03:06:36;;;;;;;;;;;20.60;69.60;;;;;;5060724;28;1545;-65
2023/10/02 03:09:05;;;;;;;;;;;20.60;69.50;;;;;;5042695;28;1363;-65
2023/10/02 03:11:32;;;;;;;;;;;20.60;69.60;;;;;;5063292;28;1441;-65
2023/10/02 03:14:12;;;;;;;;;;;20.70;69.60;;;;;;5058009;28;1519;-65
2023/10/02 03:16:37;;;;;;;;;;;20.60;69.50;;;;;;5061059;28;1786;-65
2023/10/02 03:19:03;;;;;;;;;;;20.70;69.60;;;;;;5058134;28;1549;-65
2023/10/02 03:21:30;;;;;;;;;;;20.70;69.60;;;;;;5059795;28;1959;-65
2023/10/02 03:23:59;;;;;;;;;;;20.70;69.60;;;;;;5061143;28;1426;-66
2023/10/02 03:26:27;;;;;;;;;;;20.60;69.60;;;;;;5045467;28;1269;-65
2023/10/02 03:29:00;;;;;;;;;;;20.60;69.60;;;;;;5060625;28;1706;-65
2023/10/02 03:31:36;;;;;;;;;;;20.70;69.70;;;;;;5062621;28;1062;-65
2023/10/02 03:34:24;;;;;;;;;;;20.60;69.60;;;;;;5059442;28;1206;-65
2023/10/02 03:36:48;;;;;;;;;;;20.60;69.60;;;;;;5061184;28;1767;-65
2023/10/02 03:39:23;;;;;;;;;;;20.60;69.60;;;;;;5059617;28;1159;-65
2023/10/02 03:41:55;;;;;;;;;;;20.60;69.60;;;;;;5060357;28;1906;-65
2023/10/02 03:44:22;;;;;;;;;;;20.60;69.70;;;;;;5062670;28;855;-65
2023/10/02 03:46:48;;;;;;;;;;;20.60;69.60;;;;;;5043656;28;905;-65
2023/10/02 03:49:17;;;;;;;;;;;20.60;69.60;;;;;;5061176;28;1136;-65
2023/10/02 03:51:44;;;;;;;;;;;20.60;69.60;;;;;;5042221;28;1288;-65
2023/10/02 03:54:20;;;;;;;;;;;20.70;69.70;;;;;;5060300;28;1151;-65
2023/10/02 03:56:49;;;;;;;;;;;20.60;69.60;;;;;;5062093;28;1452;-64
2023/10/02 03:59:20;;;;;;;;;;;20.60;69.70;;;;;;5059686;28;1467;-65
2023/10/02 04:01:47;;;;;;;;;;;20.70;69.70;;;;;;5043651;28;1902;-64
2023/10/02 04:04:21;;;;;;;;;;;20.60;69.70;;;;;;5058700;28;1259;-64
2023/10/02 04:06:47;;;;;;;;;;;20.60;69.70;;;;;;5056901;28;1467;-63
2023/10/02 04:09:27;;;;;;;;;;;20.60;69.70;;;;;;5059211;28;1299;-63
2023/10/02 04:11:53;;;;;;;;;;;20.70;69.70;;;;;;5056923;28;1432;-63
2023/10/02 04:14:19;;;;;;;;;;;20.60;69.70;;;;;;5060216;28;1326;-64
2023/10/02 04:19:29;;;;;;;;;;;20.60;69.70;;;;;;5060884;28;1158;-64
2023/10/02 04:21:56;;;;;;;;;;;20.60;69.70;;;;;;5057740;28;1906;-63
2023/10/02 04:24:25;;;;;;;;;;;20.60;69.80;;;;;;5062412;28;1439;-64
2023/10/02 04:27:14;;;;;;;;;;;20.60;69.70;;;;;;5061516;28;1472;-64
2023/10/02 04:29:42;;;;;;;;;;;20.60;69.70;;;;;;5061915;28;1440;-64
2023/10/02 04:32:19;;;;;;;;;;;20.70;69.80;;;;;;5059730;28;1552;-64
2023/10/02 04:34:50;;;;;;;;;;;20.60;69.70;;;;;;5059490;28;1471;-65
2023/10/02 04:37:22;;;;;;;;;;;20.70;70.60;;;;;;5061640;28;1322;-65
2023/10/02 04:42:25;;;;;;;;;;;20.60;69.80;;;;;;5043308;28;1909;-64
2023/10/02 04:44:56;;;;;;;;;;;20.60;69.80;;;;;;5059585;28;1292;-64
2023/10/02 04:47:23;;;;;;;;;;;20.60;69.80;;;;;;5059222;28;1647;-64
2023/10/02 04:55:15;;;;;;;;;;;20.60;69.80;;;;;;5059058;28;1274;-65
2023/10/02 04:57:42;;;;;;;;;;;20.70;69.90;;;;;;5064112;28;1144;-65
2023/10/02 05:00:19;;;;;;;;;;;20.70;69.90;;;;;;5062474;28;1388;-65
2023/10/02 05:02:47;;;;;;;;;;;20.60;69.80;;;;;;5043211;28;1898;-65
2023/10/02 05:05:14;;;;;;;;;;;20.60;69.90;;;;;;5044530;28;1383;-66
2023/10/02 05:07:41;;;;;;;;;;;20.70;69.90;;;;;;5057342;28;1422;-66
2023/10/02 05:10:11;;;;;;;;;;;20.60;69.80;;;;;;5064265;28;1236;-66
2023/10/02 05:12:37;;;;;;;;;;;20.60;69.80;;;;;;5056144;28;1574;-65
2023/10/02 05:15:07;;;;;;;;;;;20.60;69.90;;;;;;5061827;28;1705;-65
2023/10/02 05:17:44;;;;;;;;;;;20.70;69.90;;;;;;5059763;28;1317;-66
2023/10/02 05:20:15;;;;;;;;;;;20.60;69.90;;;;;;5043563;28;1327;-66
2023/10/02 05:22:41;;;;;;;;;;;20.60;69.90;;;;;;5063872;28;1910;-65
2023/10/02 05:25:07;;;;;;;;;;;20.60;69.90;;;;;;5061724;28;1517;-65
2023/10/02 05:27:36;;;;;;;;;;;20.70;69.90;;;;;;5062023;28;1266;-65
2023/10/02 05:30:09;;;;;;;;;;;20.60;69.90;;;;;;5048436;28;1740;-65
2023/10/02 05:32:38;;;;;;;;;;;20.60;69.90;;;;;;5042325;28;1399;-65
2023/10/02 05:35:16;;;;;;;;;;;20.70;70.00;;;;;;5043902;28;1332;-66
2023/10/02 05:37:45;;;;;;;;;;;20.70;70.00;;;;;;5043651;28;1452;-65
2023/10/02 05:43:31;;;;;;;;;;;20.70;69.40;;;;;;5064976;28;1898;-65
2023/10/02 05:45:39;;;;;;;;;;;20.70;69.70;;;;;;5037744;28;1593;-67
2023/10/02 05:48:08;;;;;;;;;;;20.60;68.90;;;;;;5048209;28;1932;-68
2023/10/02 05:50:34;;;;;;;;;;;20.60;68.50;;;;;;5062740;28;1342;-68
2023/10/02 05:53:00;;;;;;;;;;;20.60;68.30;;;;;;5060724;28;1563;-68
2023/10/02 05:55:25;;;;;;;;;;;20.70;67.90;;;;;;5059537;28;1474;-68
2023/10/02 05:57:54;;;;;;;;;;;20.70;68.00;;;;;;5058995;28;1484;-66
2023/10/02 06:00:20;;;;;;;;;;;20.70;67.90;;;;;;5064275;28;1310;-66
2023/10/02 06:02:57;;;;;;;;;;;20.60;66.70;;;;;;5061868;28;1980;-66
2023/10/02 06:05:23;;;;;;;;;;;20.60;67.70;;;;;;5060159;28;1285;-66
2023/10/02 06:07:51;;;;;;;;;;;20.60;67.10;;;;;;5061436;28;1373;-66
2023/10/02 06:10:26;;;;;;;;;;;20.60;66.90;;;;;;5065362;28;1469;-67
2023/10/02 06:13:02;;;;;;;;;;;20.60;66.90;;;;;;5045994;28;1423;-67
2023/10/02 06:15:46;;;;;;;;;;;20.60;66.90;;;;;;5043972;28;1446;-65
2023/10/02 06:18:24;;;;;;;;;;;20.60;66.10;;;;;;5061907;28;1414;-67
2023/10/02 06:21:03;;;;;;;;;;;20.60;65.80;;;;;;5062000;28;1914;-67
2023/10/02 06:23:38;;;;;;;;;;;20.60;65.90;;;;;;5064024;28;1362;-67
2023/10/02 06:26:09;;;;;;;;;;;20.60;66.30;;;;;;5062259;28;1321;-67
2023/10/02 06:28:35;;;;;;;;;;;20.50;66.10;;;;;;5062882;28;1382;-67
2023/10/02 06:31:01;;;;;;;;;;;20.60;65.90;;;;;;5057385;28;1280;-67
2023/10/02 06:33:27;;;;;;;;;;;20.60;65.70;;;;;;5058984;28;1589;-67
2023/10/02 06:36:00;;;;;;;;;;;20.60;65.80;;;;;;5060517;28;1506;-67
2023/10/02 06:38:29;;;;;;;;;;;20.60;66.00;;;;;;5060168;28;1055;-67
2023/10/02 06:40:59;;;;;;;;;;;20.60;66.00;;;;;;5060597;28;1969;-66
2023/10/02 06:43:32;;;;;;;;;;;20.50;65.80;;;;;;5060419;28;1444;-66
2023/10/02 06:46:07;;;;;;;;;;;20.60;65.80;;;;;;5056823;28;1316;-66
2023/10/02 06:48:36;;;;;;;;;;;20.50;65.80;;;;;;5042867;28;1713;-65
2023/10/02 06:51:02;;;;;;;;;;;20.50;65.80;;;;;;5044521;28;1471;-64
2023/10/02 06:53:28;;;;;;;;;;;20.50;65.60;;;;;;5058388;28;1280;-65
2023/10/02 06:55:58;;;;;;;;;;;20.50;65.40;;;;;;5059501;28;852;-67
2023/10/02 06:58:25;;;;;;;;;;;20.50;65.60;;;;;;5044491;28;1117;-67
2023/10/02 07:01:01;;;;;;;;;;;20.50;65.20;;;;;;5043679;28;1977;-67
2023/10/02 07:03:27;;;;;;;;;;;20.50;65.40;;;;;;5059202;28;1400;-67
2023/10/02 07:05:52;;;;;;;;;;;20.50;64.80;;;;;;5061021;28;1370;-67
2023/10/02 07:08:18;;;;;;;;;;;20.50;64.80;;;;;;5059804;28;1508;-66
2023/10/02 07:10:47;;;;;;;;;;;20.50;64.90;;;;;;5061932;28;1486;-67
2023/10/02 07:13:20;;;;;;;;;;;20.50;64.70;;;;;;5040991;28;1660;-67
2023/10/02 07:15:59;;;;;;;;;;;20.50;64.90;;;;;;5043703;28;1380;-65
2023/10/02 07:18:37;;;;;;;;;;;20.50;64.80;;;;;;5061270;28;1221;-65
2023/10/02 07:21:07;;;;;;;;;;;20.50;65.00;;;;;;5058669;28;1910;-66
2023/10/02 07:23:37;;;;;;;;;;;20.50;65.00;;;;;;5060329;28;1379;-66
2023/10/02 07:26:05;;;;;;;;;;;20.50;65.10;;;;;;5057953;28;1193;-66
2023/10/02 07:28:31;;;;;;;;;;;20.50;65.20;;;;;;5051076;28;1460;-66
2023/10/02 07:30:57;;;;;;;;;;;20.50;65.10;;;;;;5058807;28;1524;-65
2023/10/02 07:33:22;;;;;;;;;;;20.50;65.20;;;;;;5062305;28;1348;-65
2023/10/02 07:35:57;;;;;;;;;;;20.50;65.60;;;;;;5063896;28;1309;-67
2023/10/02 07:38:30;;;;;;;;;;;20.50;65.50;;;;;;5057544;28;1442;-67
2023/10/02 07:41:06;;;;;;;;;;;20.50;65.30;;;;;;5059345;28;1906;-66
2023/10/02 07:43:31;;;;;;;;;;;20.50;65.70;;;;;;5057634;28;1467;-67
2023/10/02 07:46:01;;;;;;;;;;;20.50;65.50;;;;;;5060833;28;1218;-67
2023/10/02 07:48:36;;;;;;;;;;;20.50;65.80;;;;;;5059275;28;1459;-67
2023/10/02 07:51:02;;;;;;;;;;;20.50;65.60;;;;;;5044083;28;1290;-67
2023/10/02 07:53:39;;;;;;;;;;;20.50;65.70;;;;;;5041135;28;1473;-66
2023/10/02 07:56:06;;;;;;;;;;;20.50;65.80;;;;;;5064421;28;1450;-66
2023/10/02 07:58:36;;;;;;;;;;;20.50;65.70;;;;;;5057601;28;1375;-66
2023/10/02 08:01:11;;;;;;;;;;;20.50;66.50;;;;;;5059198;28;1910;-66
2023/10/02 08:03:49;;;;;;;;;;;20.50;65.90;;;;;;5059042;28;1746;-66
2023/10/02 08:06:21;;;;;;;;;;;20.50;65.80;;;;;;5058437;28;1566;-67
2023/10/02 08:08:47;;;;;;;;;;;20.50;65.80;;;;;;5060367;28;1288;-67
2023/10/02 08:11:12;;;;;;;;;;;20.50;65.60;;;;;;5058433;28;1610;-67
2023/10/02 08:13:48;;;;;;;;;;;20.50;65.80;;;;;;5064921;22;2061;-70
2023/10/02 08:16:15;;;;;;;;;;;20.50;65.80;;;;;;5037853;28;1278;-70
2023/10/02 08:18:57;;;;;;;;;;;20.50;65.70;;;;;;5039888;28;1248;-71
2023/10/02 08:21:33;;;;;;;;;;;20.50;65.80;;;;;;5039981;28;1894;-70
2023/10/02 08:24:01;;;;;;;;;;;20.50;65.70;;;;;;5034713;28;1320;-70
2023/10/02 08:26:27;;;;;;;;;;;20.50;66.00;;;;;;5025924;28;1383;-70
2023/10/02 08:28:53;;;;;;;;;;;20.50;66.10;;;;;;5026097;28;1128;-70
2023/10/02 08:31:19;;;;;;;;;;;20.50;66.20;;;;;;5019293;28;1521;-70
2023/10/02 08:33:45;;;;;;;;;;;20.50;66.30;;;;;;5024821;28;1358;-70
2023/10/02 08:36:12;;;;;;;;;;;20.50;66.50;;;;;;5023507;28;1283;-69
2023/10/02 08:38:40;;;;;;;;;;;20.50;66.50;;;;;;5025684;28;2109;-70
2023/10/02 08:41:07;;;;;;;;;;;20.50;66.50;;;;;;5011714;28;1965;-69
2023/10/02 08:43:32;;;;;;;;;;;20.50;66.40;;;;;;5023492;28;1990;-69
2023/10/02 08:45:58;;;;;;;;;;;20.60;66.50;;;;;;5004110;28;1319;-69
2023/10/02 08:48:25;;;;;;;;;;;20.60;66.50;;;;;;5019425;28;1828;-70
2023/10/02 08:50:52;;;;;;;;;;;20.60;66.40;;;;;;5019380;28;1257;-69
2023/10/02 08:53:21;;;;;;;;;;;20.60;66.40;;;;;;5021913;28;1917;-69
2023/10/02 08:56:11;;;;;;;;;;;20.60;66.10;;;;;;5009853;28;1265;-69
2023/10/02 08:58:37;;;;;;;;;;;20.60;65.80;;;;;;5021659;28;1223;-69
2023/10/02 09:03:43;;;;;;;;;;;20.60;66.00;;;;;;5027723;28;1643;-70
2023/10/02 09:11:39;;;;;;;;;;;20.70;66.10;;;;;;5022288;28;1117;-69
2023/10/02 09:14:23;;;;;;;;;;;20.70;66.20;;;;;;5020289;28;1268;-70
2023/10/02 09:17:07;;;;;;;;;;;20.70;66.40;;;;;;5023917;28;1529;-69
2023/10/02 09:19:37;;;;;;;;;;;20.70;66.40;;;;;;5022752;28;1227;-70
2023/10/02 09:22:11;;;;;;;;;;;20.70;66.60;;;;;;5025021;28;1910;-69
2023/10/02 09:24:40;;;;;;;;;;;20.70;66.70;;;;;;5023611;28;1286;-69
2023/10/02 09:27:31;;;;;;;;;;;20.70;66.80;;;;;;5020379;28;1266;-70
2023/10/02 09:32:49;;;;;;;;;;;20.80;67.10;;;;;;5019893;28;1967;-70
2023/10/02 09:35:21;;;;;;;;;;;20.80;67.30;;;;;;5020921;28;2101;-69
2023/10/02 09:37:55;;;;;;;;;;;20.80;67.40;;;;;;5023783;28;1267;-69
2023/10/02 09:40:24;;;;;;;;;;;20.80;67.30;;;;;;5004143;28;1462;-69
2023/10/02 09:42:49;;;;;;;;;;;20.90;67.40;;;;;;5022562;28;2040;-69
2023/10/02 09:45:15;;;;;;;;;;;20.90;67.20;;;;;;5013806;28;1071;-69
2023/10/02 09:47:43;;;;;;;;;;;20.90;67.10;;;;;;5019154;28;2160;-69
2023/10/02 09:50:23;;;;;;;;;;;20.90;67.10;;;;;;5012845;28;1579;-69
2023/10/02 09:53:00;;;;;;;;;;;21.00;67.10;;;;;;5023212;28;1708;-69
2023/10/02 09:55:41;;;;;;;;;;;21.00;67.00;;;;;;5012719;28;1336;-70
2023/10/02 09:58:26;;;;;;;;;;;21.00;67.10;;;;;;5020915;28;1462;-68
2023/10/02 10:03:51;;;;;;;;;;;21.00;66.70;;;;;;5023753;28;1283;-69
2023/10/02 10:06:27;;;;;;;;;;;21.00;66.80;;;;;;5011568;28;1137;-69
2023/10/02 10:12:21;;;;;;;;;;;21.10;67.30;;;;;;5025570;28;978;-69
2023/10/02 10:14:37;;;;;;;;;;;21.10;67.30;;;;;;5023588;28;1236;-69
2023/10/02 10:17:08;;;;;;;;;;;21.10;67.30;;;;;;5022818;28;1297;-69
2023/10/02 10:19:34;;;;;;;;;;;21.10;67.20;;;;;;5029907;28;1361;-71
2023/10/02 10:22:10;;;;;;;;;;;21.20;68.30;;;;;;5012567;28;1909;-69
2023/10/02 10:24:51;;;;;;;;;;;21.20;68.30;;;;;;5024909;28;1559;-70
2023/10/02 10:27:35;;;;;;;;;;;21.20;67.90;;;;;;5009016;28;4367;-69
2023/10/02 10:30:10;;;;;;;;;;;21.20;67.70;;;;;;5013888;28;3846;-70
2023/10/02 10:32:36;;;;;;;;;;;21.20;67.60;;;;;;5013836;28;1263;-68
2023/10/02 10:35:14;;;;;;;;;;;21.20;67.40;;;;;;5025998;28;1697;-69
2023/10/02 10:37:46;;;;;;;;;;;21.20;67.40;;;;;;5025846;28;1441;-69
2023/10/02 10:40:47;;;;;;;;;;;21.20;67.80;;;;;;5024714;28;1557;-68
2023/10/02 10:43:16;;;;;;;;;;;21.20;67.80;;;;;;5024989;28;1914;-69
2023/10/02 10:45:41;;;;;;;;;;;21.30;67.50;;;;;;5024752;28;1425;-69
2023/10/02 10:48:19;;;;;;;;;;;21.30;67.40;;;;;;5025391;28;1334;-71
2023/10/02 10:50:57;;;;;;;;;;;21.30;67.50;;;;;;5026833;28;1168;-68
2023/10/02 10:53:28;;;;;;;;;;;21.30;67.50;;;;;;5021687;28;1491;-69
2023/10/02 10:56:05;;;;;;;;;;;21.30;67.60;;;;;;5012663;28;1396;-69
2023/10/02 10:58:34;;;;;;;;;;;21.30;67.60;;;;;;5023912;28;1287;-71
2023/10/02 11:01:02;;;;;;;;;;;21.30;67.30;;;;;;5024619;28;1983;-69
2023/10/02 11:03:27;;;;;;;;;;;21.30;67.20;;;;;;5011963;28;1453;-69
2023/10/02 11:05:58;;;;;;;;;;;21.30;67.20;;;;;;5025461;28;1546;-69
2023/10/02 11:08:23;;;;;;;;;;;21.30;67.30;;;;;;5026795;28;1416;-68
2023/10/02 11:11:00;;;;;;;;;;;21.30;67.20;;;;;;5025804;28;1286;-68
2023/10/02 11:13:50;;;;;;;;;;;21.30;67.20;;;;;;5024654;28;1313;-69
2023/10/02 11:16:20;;;;;;;;;;;21.30;67.10;;;;;;5010847;28;4148;-68
2023/10/02 11:19:10;;;;;;;;;;;21.30;66.80;;;;;;5026741;28;1442;-69
2023/10/02 11:21:45;;;;;;;;;;;21.40;66.60;;;;;;5021200;28;1890;-70
2023/10/02 11:24:22;;;;;;;;;;;21.40;66.60;;;;;;5029358;28;1368;-69
2023/10/02 11:26:48;;;;;;;;;;;21.40;66.50;;;;;;5022209;28;1423;-69
2023/10/02 11:29:22;;;;;;;;;;;21.30;66.50;;;;;;5018287;28;1354;-69
2023/10/02 11:35:05;;;;;;;;;;;21.30;66.70;;;;;;5011773;28;1640;-69
2023/10/02 11:37:31;;;;;;;;;;;21.40;66.60;;;;;;5018108;28;1520;-69
2023/10/02 11:39:57;;;;;;;;;;;21.40;66.70;;;;;;5003650;28;1566;-69
2023/10/02 11:42:23;;;;;;;;;;;21.40;66.10;;;;;;5022784;28;1895;-69
2023/10/02 11:44:48;;;;;;;;;;;21.40;66.10;;;;;;5021210;28;1255;-68
2023/10/02 11:47:14;;;;;;;;;;;21.40;66.10;;;;;;5020828;28;1340;-69
2023/10/02 11:49:40;;;;;;;;;;;21.50;66.10;;;;;;5006751;28;1588;-68
2023/10/02 11:52:05;;;;;;;;;;;21.40;66.00;;;;;;5019350;28;1163;-69
2023/10/02 11:54:39;;;;;;;;;;;21.50;65.90;;;;;;5023561;28;1287;-69
2023/10/02 11:57:08;;;;;;;;;;;21.50;66.30;;;;;;5020663;28;1124;-68
2023/10/02 11:59:34;;;;;;;;;;;21.40;66.20;;;;;;5019628;28;1247;-68
2023/10/02 12:02:00;;;;;;;;;;;21.50;65.80;;;;;;5019926;28;1902;-69
2023/10/02 12:04:26;;;;;;;;;;;21.50;65.60;;;;;;5021890;28;1422;-68
2023/10/02 12:06:54;;;;;;;;;;;21.50;65.30;;;;;;5022664;28;1856;-69
2023/10/02 12:09:22;;;;;;;;;;;21.50;65.20;;;;;;5019616;28;1340;-68
2023/10/02 12:11:48;;;;;;;;;;;21.50;65.10;;;;;;5021357;28;1344;-70
2023/10/02 12:14:13;;;;;;;;;;;21.50;64.90;;;;;;5024054;28;1352;-67
2023/10/02 12:16:39;;;;;;;;;;;21.50;65.20;;;;;;5022499;28;1292;-69
2023/10/02 12:19:08;;;;;;;;;;;21.60;65.10;;;;;;5021272;28;1385;-69
2023/10/02 12:21:34;;;;;;;;;;;21.60;65.30;;;;;;5011884;28;1895;-68
2023/10/02 12:24:00;;;;;;;;;;;21.60;65.20;;;;;;5021405;28;1449;-67
2023/10/02 12:26:28;;;;;;;;;;;21.60;65.30;;;;;;5021884;28;1406;-69
2023/10/02 12:28:54;;;;;;;;;;;21.60;65.30;;;;;;5011774;28;1855;-70
2023/10/02 12:31:19;;;;;;;;;;;21.60;65.40;;;;;;5031138;28;1232;-70
2023/10/02 12:33:45;;;;;;;;;;;21.60;65.20;;;;;;5025218;28;1359;-69
2023/10/02 12:36:11;;;;;;;;;;;21.60;65.40;;;;;;5026586;28;1257;-67
2023/10/02 12:38:38;;;;;;;;;;;21.60;65.30;;;;;;5028912;28;1618;-70
2023/10/02 12:41:20;;;;;;;;;;;21.60;65.30;;;;;;5018279;28;1902;-68
2023/10/02 12:43:45;;;;;;;;;;;21.60;65.50;;;;;;5030110;28;1314;-69
2023/10/02 12:46:14;;;;;;;;;;;21.60;65.60;;;;;;5026642;28;1564;-69
2023/10/02 12:48:44;;;;;;;;;;;21.60;65.80;;;;;;5031582;28;1431;-69
2023/10/02 12:51:09;;;;;;;;;;;21.60;65.90;;;;;;5034045;28;1189;-69
2023/10/02 12:53:36;;;;;;;;;;;21.60;65.80;;;;;;5031537;28;1575;-69
2023/10/02 12:56:02;;;;;;;;;;;21.60;65.80;;;;;;5029249;28;1397;-69
2023/10/02 12:58:27;;;;;;;;;;;21.60;65.70;;;;;;5017672;28;1394;-68
2023/10/02 13:00:53;;;;;;;;;;;21.60;65.80;;;;;;5016499;28;1329;-70
2023/10/02 13:03:19;;;;;;;;;;;21.60;66.10;;;;;;5022556;28;1910;-69
2023/10/02 13:05:44;;;;;;;;;;;21.50;66.10;;;;;;5025670;28;1469;-69
2023/10/02 13:08:10;;;;;;;;;;;21.50;66.00;;;;;;5026120;28;1620;-69
2023/10/02 13:10:35;;;;;;;;;;;21.50;65.80;;;;;;5025066;28;1417;-69
2023/10/02 13:13:01;;;;;;;;;;;21.50;65.80;;;;;;5024474;28;1382;-69
2023/10/02 13:15:28;;;;;;;;;;;21.50;65.80;;;;;;5026412;28;1193;-69
2023/10/02 13:17:54;;;;;;;;;;;21.50;65.70;;;;;;5025855;28;1144;-69
2023/10/02 13:20:19;;;;;;;;;;;21.50;65.60;;;;;;5026598;28;1365;-69
2023/10/02 13:22:45;;;;;;;;;;;21.50;65.70;;;;;;5024079;28;1969;-69
2023/10/02 13:25:13;;;;;;;;;;;21.50;65.80;;;;;;5025040;28;1366;-69
2023/10/02 13:27:42;;;;;;;;;;;21.50;65.80;;;;;;5026679;28;1178;-68
2023/10/02 13:30:18;;;;;;;;;;;21.50;65.90;;;;;;5032283;28;1407;-68
2023/10/02 13:32:43;;;;;;;;;;;21.50;65.90;;;;;;5026320;28;880;-67
2023/10/02 13:35:09;;;;;;;;;;;21.60;66.00;;;;;;5028164;28;1494;-67
2023/10/02 13:37:35;;;;;;;;;;;21.50;66.20;;;;;;5026800;28;1466;-67
2023/10/02 13:40:04;;;;;;;;;;;21.50;66.10;;;;;;5026035;28;1571;-69
2023/10/02 13:42:30;;;;;;;;;;;21.50;66.10;;;;;;5024977;28;1898;-70
2023/10/02 13:44:55;;;;;;;;;;;21.50;66.30;;;;;;5023062;28;2123;-69
2023/10/02 13:47:22;;;;;;;;;;;21.50;66.40;;;;;;5029309;28;1429;-68
2023/10/02 13:49:48;;;;;;;;;;;21.60;66.20;;;;;;4991080;28;2033;-70
2023/10/02 13:52:13;;;;;;;;;;;21.60;66.00;;;;;;5024195;28;1333;-67
2023/10/02 13:54:39;;;;;;;;;;;21.60;66.00;;;;;;5011026;28;1469;-67
2023/10/02 13:57:05;;;;;;;;;;;21.60;66.00;;;;;;5021781;28;1335;-67
2023/10/02 13:59:31;;;;;;;;;;;21.60;66.10;;;;;;5017611;28;1323;-67
2023/10/02 14:01:58;;;;;;;;;;;21.60;66.10;;;;;;5022134;28;1894;-67
2023/10/02 14:04:27;;;;;;;;;;;21.60;66.10;;;;;;5011864;28;1477;-67
2023/10/02 14:06:53;;;;;;;;;;;21.60;66.10;;;;;;5021709;28;1622;-67
2023/10/02 14:09:20;;;;;;;;;;;21.60;66.10;;;;;;5021902;28;1331;-68
2023/10/02 14:11:46;;;;;;;;;;;21.60;66.40;;;;;;5022897;28;1405;-67
2023/10/02 14:14:11;;;;;;;;;;;21.60;66.70;;;;;;5023118;28;1355;-68
2023/10/02 14:16:37;;;;;;;;;;;21.60;66.60;;;;;;5056155;23;3926;-67
2023/10/02 14:19:02;;;;;;;;;;;21.60;66.50;;;;;;5025591;28;1525;-66
2023/10/02 14:21:29;;;;;;;;;;;21.60;66.50;;;;;;5037837;28;1918;-66
2023/10/02 14:23:54;;;;;;;;;;;21.60;66.60;;;;;;5023865;28;1171;-66
2023/10/02 14:26:21;;;;;;;;;;;21.60;66.90;;;;;;5040065;28;1507;-67
2023/10/02 14:28:47;;;;;;;;;;;21.60;67.00;;;;;;5039396;28;1380;-66
2023/10/02 14:31:20;;;;;;;;;;;21.60;67.20;;;;;;5043227;28;1536;-66
2023/10/02 14:33:45;;;;;;;;;;;21.60;67.30;;;;;;5043830;28;1401;-67
2023/10/02 14:36:11;;;;;;;;;;;21.50;67.70;;;;;;5040009;28;1556;-67
2023/10/02 14:38:37;;;;;;;;;;;21.50;67.80;;;;;;5040623;28;1397;-66
2023/10/02 14:41:03;;;;;;;;;;;21.50;67.90;;;;;;5036682;28;1965;-66
2023/10/02 14:43:28;;;;;;;;;;;21.50;68.00;;;;;;5042035;28;1471;-66
2023/10/02 14:45:57;;;;;;;;;;;21.50;68.00;;;;;;5044566;28;1294;-65
2023/10/02 14:48:23;;;;;;;;;;;21.50;68.40;;;;;;5044760;28;1393;-66
2023/10/02 14:50:48;;;;;;;;;;;21.50;68.50;;;;;;5041896;28;1541;-67
2023/10/02 14:53:14;;;;;;;;;;;21.50;68.40;;;;;;5044547;28;1247;-66
2023/10/02 14:55:44;;;;;;;;;;;21.40;68.60;;;;;;5043307;28;1327;-66
2023/10/02 14:58:10;;;;;;;;;;;21.50;68.80;;;;;;5041693;28;1290;-66
2023/10/02 15:00:36;;;;;;;;;;;21.50;68.80;;;;;;5043214;28;1401;-65
2023/10/02 15:03:02;;;;;;;;;;;21.50;68.80;;;;;;5042523;28;1898;-66
2023/10/02 15:05:27;;;;;;;;;;;21.40;68.60;;;;;;5044656;28;1496;-68
2023/10/02 15:07:53;;;;;;;;;;;21.50;68.70;;;;;;5042775;28;1669;-66
2023/10/02 15:10:20;;;;;;;;;;;21.50;68.60;;;;;;5042249;28;1258;-66
2023/10/02 15:12:47;;;;;;;;;;;21.50;68.50;;;;;;5044388;28;1290;-65
2023/10/02 15:15:16;;;;;;;;;;;21.50;68.30;;;;;;5041640;28;1346;-67
2023/10/02 15:17:45;;;;;;;;;;;21.40;68.40;;;;;;5041309;28;1235;-65
2023/10/02 15:20:19;;;;;;;;;;;21.50;68.30;;;;;;5043700;28;1481;-64
2023/10/02 15:22:45;;;;;;;;;;;21.50;69.10;;;;;;5043361;28;2013;-65
2023/10/02 15:25:13;;;;;;;;;;;21.50;68.70;;;;;;5042062;28;1505;-65
2023/10/02 15:27:42;;;;;;;;;;;21.40;68.70;;;;;;5042375;28;1301;-64
2023/10/02 15:30:11;;;;;;;;;;;21.40;68.80;;;;;;5044537;28;1274;-65
2023/10/02 15:32:37;;;;;;;;;;;21.40;68.70;;;;;;5040981;28;1419;-65
2023/10/02 15:35:05;;;;;;;;;;;21.40;68.70;;;;;;5044482;28;1503;-66